createdAt,value
2022-11-10T00:01:07.172Z,99.61
2022-11-10T00:03:34.716Z,99.37
2022-11-10T00:06:02.536Z,99.36
2022-11-10T00:08:29.808Z,99.78
2022-11-10T00:11:01.450Z,99.25
2022-11-10T00:13:32.817Z,99.38
2022-11-10T00:16:22.330Z,99.32
2022-11-10T00:18:49.992Z,99.38
2022-11-10T00:21:17.227Z,99.01
2022-11-10T00:23:45.631Z,99.39
2022-11-10T00:26:13.545Z,99.14
2022-11-10T00:28:40.827Z,99.23
2022-11-10T00:31:07.969Z,98.87
2022-11-10T00:33:36.357Z,98.89
2022-11-10T00:36:04.736Z,99.27
2022-11-10T00:38:31.873Z,99.14
2022-11-10T00:40:59.893Z,99.27
2022-11-10T00:43:27.652Z,99.59
2022-11-10T00:45:55.413Z,99.75
2022-11-10T00:48:22.779Z,99.99
2022-11-10T00:50:50.862Z,100.00
2022-11-10T00:53:18.550Z,100.00
2022-11-10T00:55:45.906Z,100.00
2022-11-10T00:58:12.941Z,100.00
2022-11-10T01:00:40.598Z,100.00
2022-11-10T01:03:07.735Z,100.00
2022-11-10T01:05:38.184Z,100.00
2022-11-10T01:08:05.412Z,100.00
2022-11-10T01:10:32.632Z,100.00
2022-11-10T01:12:59.660Z,100.00
2022-11-10T01:15:28.051Z,100.00
2022-11-10T01:17:59.217Z,100.00
2022-11-10T01:20:26.896Z,100.00
2022-11-10T01:22:55.007Z,100.00
2022-11-10T01:25:22.250Z,100.00
2022-11-10T01:27:50.124Z,100.00
2022-11-10T01:30:42.004Z,100.00
2022-11-10T01:33:10.218Z,100.00
2022-11-10T01:35:37.337Z,100.00
2022-11-10T01:38:05.664Z,100.00
2022-11-10T01:40:32.937Z,100.00
2022-11-10T01:43:00.696Z,100.00
2022-11-10T01:45:44.744Z,100.00
2022-11-10T01:48:16.754Z,100.00
2022-11-10T01:50:44.100Z,100.00
2022-11-10T01:53:13.704Z,100.00
2022-11-10T01:55:42.069Z,100.00
2022-11-10T01:58:09.131Z,100.00
2022-11-10T02:00:36.246Z,100.00
2022-11-10T02:03:04.219Z,100.00
2022-11-10T02:05:31.254Z,100.00
2022-11-10T02:07:58.356Z,100.00
2022-11-10T02:10:25.780Z,100.00
2022-11-10T02:12:54.353Z,100.00
2022-11-10T02:15:21.442Z,100.00
2022-11-10T02:17:48.552Z,100.00
2022-11-10T02:20:16.806Z,100.00
2022-11-10T02:22:47.634Z,100.00
2022-11-10T02:25:17.044Z,100.00
2022-11-10T02:27:44.066Z,100.00
2022-11-10T02:30:11.434Z,100.00
2022-11-10T02:32:38.496Z,100.00
2022-11-10T02:35:06.118Z,100.00
2022-11-10T02:37:33.246Z,100.00
2022-11-10T02:40:00.361Z,100.00
2022-11-10T02:42:27.494Z,100.00
2022-11-10T02:44:54.796Z,100.00
2022-11-10T02:47:21.839Z,100.00
2022-11-10T02:49:49.658Z,100.00
2022-11-10T02:52:16.672Z,100.00
2022-11-10T02:54:43.900Z,100.00
2022-11-10T02:57:10.990Z,100.00
2022-11-10T02:59:38.056Z,100.00
2022-11-10T03:02:05.156Z,100.00
2022-11-10T03:04:32.627Z,100.00
2022-11-10T03:06:59.722Z,100.00
2022-11-10T03:09:27.188Z,100.00
2022-11-10T03:11:54.275Z,100.00
2022-11-10T03:14:21.404Z,100.00
2022-11-10T03:16:49.690Z,100.00
2022-11-10T03:19:17.015Z,100.00
2022-11-10T03:21:44.086Z,100.00
2022-11-10T03:24:11.285Z,100.00
2022-11-10T03:26:38.400Z,100.00
2022-11-10T03:29:05.440Z,100.00
2022-11-10T03:31:32.585Z,100.00
2022-11-10T03:33:59.640Z,100.00
2022-11-10T03:36:26.741Z,100.00
2022-11-10T03:38:54.370Z,100.00
2022-11-10T03:41:21.433Z,100.00
2022-11-10T03:43:49.514Z,100.00
2022-11-10T03:46:16.867Z,100.00
2022-11-10T03:48:48.759Z,100.00
2022-11-10T03:51:19.073Z,100.00
2022-11-10T03:53:46.404Z,100.00
2022-11-10T03:56:13.751Z,100.00
2022-11-10T03:58:40.938Z,100.00
2022-11-10T04:01:10.011Z,100.00
2022-11-10T04:03:37.117Z,100.00
2022-11-10T04:06:23.325Z,100.00
2022-11-10T04:09:00.184Z,100.00
2022-11-10T04:11:46.591Z,100.00
2022-11-10T04:14:32.276Z,100.00
2022-11-10T04:17:00.404Z,100.00
2022-11-10T04:19:27.467Z,100.00
2022-11-10T04:21:54.563Z,100.00
2022-11-10T04:24:22.794Z,100.00
2022-11-10T04:26:49.997Z,100.00
2022-11-10T04:29:18.293Z,100.00
2022-11-10T04:31:45.539Z,100.00
2022-11-10T04:34:13.488Z,100.00
2022-11-10T04:36:41.591Z,100.00
2022-11-10T04:39:09.244Z,100.00
2022-11-10T04:41:36.419Z,100.00
2022-11-10T04:44:03.578Z,100.00
2022-11-10T04:46:31.805Z,100.00
2022-11-10T04:48:59.042Z,100.00
2022-11-10T04:51:27.003Z,100.00
2022-11-10T04:53:54.305Z,100.00
2022-11-10T04:56:22.065Z,100.00
2022-11-10T04:58:49.225Z,100.00
2022-11-10T05:01:17.200Z,100.00
2022-11-10T05:03:44.363Z,100.00
2022-11-10T05:06:11.575Z,100.00
2022-11-10T05:08:39.653Z,100.00
2022-11-10T05:11:07.494Z,100.00
2022-11-10T05:13:34.597Z,100.00
2022-11-10T05:16:01.744Z,100.00
2022-11-10T05:18:28.938Z,100.00
2022-11-10T05:20:56.354Z,100.00
2022-11-10T05:23:38.766Z,100.00
2022-11-10T05:26:05.914Z,100.00
2022-11-10T05:28:37.230Z,100.00
2022-11-10T05:31:04.377Z,100.00
2022-11-10T05:33:32.405Z,100.00
2022-11-10T05:35:59.626Z,100.00
2022-11-10T05:38:26.732Z,100.00
2022-11-10T05:40:53.952Z,100.00
2022-11-10T05:43:21.601Z,100.00
2022-11-10T05:45:48.995Z,100.00
2022-11-10T05:48:16.046Z,100.00
2022-11-10T05:50:43.871Z,100.00
2022-11-10T05:53:11.035Z,100.00
2022-11-10T05:55:38.142Z,100.00
2022-11-10T05:58:05.188Z,100.00
2022-11-10T06:00:32.686Z,100.00
2022-11-10T06:03:06.688Z,100.00
2022-11-10T06:05:34.540Z,100.00
2022-11-10T06:08:01.894Z,100.00
2022-11-10T06:10:29.420Z,100.00
2022-11-10T06:12:56.562Z,100.00
2022-11-10T06:15:23.905Z,100.00
2022-11-10T06:17:50.948Z,100.00
2022-11-10T06:20:20.012Z,100.00
2022-11-10T06:23:00.123Z,100.00
2022-11-10T06:25:28.573Z,100.00
2022-11-10T06:27:55.841Z,100.00
2022-11-10T06:30:23.060Z,100.00
2022-11-10T06:32:50.502Z,100.00
2022-11-10T06:35:18.672Z,100.00
2022-11-10T06:37:46.015Z,99.37
2022-11-10T06:40:14.903Z,97.26
2022-11-10T06:42:42.494Z,95.66
2022-11-10T06:45:10.967Z,95.22
2022-11-10T06:47:38.516Z,94.77
2022-11-10T06:50:05.777Z,92.35
2022-11-10T06:52:33.433Z,91.18
2022-11-10T06:55:00.446Z,91.55
2022-11-10T06:57:27.601Z,92.04
2022-11-10T06:59:54.841Z,92.98
2022-11-10T07:02:22.069Z,93.09
2022-11-10T07:04:50.747Z,92.83
2022-11-10T07:07:18.005Z,93.40
2022-11-10T07:09:45.432Z,93.91
2022-11-10T07:12:12.949Z,94.06
2022-11-10T07:14:40.227Z,93.72
2022-11-10T07:17:08.479Z,93.61
2022-11-10T07:19:35.597Z,93.50
2022-11-10T07:22:08.022Z,93.88
2022-11-10T07:24:37.891Z,93.53
2022-11-10T07:27:05.301Z,91.99
2022-11-10T07:29:32.491Z,90.47
2022-11-10T07:31:59.623Z,90.40
2022-11-10T07:34:26.681Z,89.73
2022-11-10T07:36:54.862Z,88.61
2022-11-10T07:39:21.896Z,88.51
2022-11-10T07:41:52.468Z,87.35
2022-11-10T07:44:19.939Z,85.13
2022-11-10T07:46:47.245Z,84.02
2022-11-10T07:49:14.403Z,81.64
2022-11-10T07:51:42.462Z,77.12
2022-11-10T07:54:09.719Z,69.89
2022-11-10T07:56:37.136Z,60.46
2022-11-10T07:59:04.215Z,55.82
2022-11-10T08:01:31.721Z,49.51
2022-11-10T08:03:58.847Z,47.38
2022-11-10T08:06:26.082Z,51.06
2022-11-10T08:08:54.690Z,49.66
2022-11-10T08:11:21.809Z,49.78
2022-11-10T08:13:50.250Z,50.60
2022-11-10T08:16:17.349Z,45.09
2022-11-10T08:18:44.383Z,44.08
2022-11-10T08:21:11.676Z,40.42
2022-11-10T08:23:38.768Z,39.22
2022-11-10T08:26:06.003Z,36.90
2022-11-10T08:28:33.203Z,37.89
2022-11-10T08:31:05.497Z,38.68
2022-11-10T08:33:33.265Z,40.25
2022-11-10T08:36:01.099Z,40.52
2022-11-10T08:38:28.407Z,40.51
2022-11-10T08:40:56.179Z,38.97
2022-11-10T08:43:23.713Z,37.16
2022-11-10T08:45:53.587Z,36.40
2022-11-10T08:48:20.823Z,37.73
2022-11-10T08:50:49.645Z,37.27
2022-11-10T08:53:17.778Z,36.26
2022-11-10T08:55:44.878Z,35.67
2022-11-10T08:58:13.120Z,34.93
2022-11-10T09:00:41.735Z,34.26
2022-11-10T09:03:13.720Z,34.72
2022-11-10T09:05:41.359Z,35.28
2022-11-10T09:08:08.838Z,33.25
2022-11-10T09:10:38.433Z,34.21
2022-11-10T09:13:10.367Z,34.34
2022-11-10T09:15:38.408Z,36.86
2022-11-10T09:18:07.307Z,36.17
2022-11-10T09:20:34.985Z,33.82
2022-11-10T09:23:15.259Z,33.66
2022-11-10T09:25:42.752Z,32.86
2022-11-10T09:28:13.477Z,32.79
2022-11-10T09:30:41.466Z,32.07
2022-11-10T09:33:08.852Z,31.73
2022-11-10T09:35:36.781Z,33.21
2022-11-10T09:38:03.961Z,34.54
2022-11-10T09:40:50.637Z,34.03
2022-11-10T09:43:20.597Z,34.92
2022-11-10T09:45:48.702Z,32.59
2022-11-10T09:48:17.453Z,34.30
2022-11-10T09:50:44.772Z,32.99
2022-11-10T09:53:12.801Z,34.17
2022-11-10T09:55:44.076Z,34.38
2022-11-10T09:58:11.796Z,34.77
2022-11-10T10:00:40.182Z,32.67
2022-11-10T10:03:09.069Z,33.03
2022-11-10T10:05:40.639Z,32.48
2022-11-10T10:08:09.092Z,33.13
2022-11-10T10:11:14.560Z,32.80
2022-11-10T10:14:01.825Z,34.28
2022-11-10T10:16:31.894Z,35.30
2022-11-10T10:19:17.655Z,33.13
2022-11-10T10:21:50.577Z,33.13
2022-11-10T10:24:21.848Z,34.25
2022-11-10T10:26:50.843Z,34.81
2022-11-10T10:29:44.221Z,34.74
2022-11-10T10:32:11.782Z,33.93
2022-11-10T10:34:38.947Z,34.21
2022-11-10T10:37:14.500Z,34.62
2022-11-10T10:39:42.505Z,35.67
2022-11-10T10:42:32.797Z,38.45
2022-11-10T10:45:18.386Z,41.31
2022-11-10T10:47:47.270Z,45.66
2022-11-10T10:50:26.643Z,46.59
2022-11-10T10:53:14.209Z,48.67
2022-11-10T10:55:45.999Z,42.13
2022-11-10T10:58:32.716Z,39.31
2022-11-10T11:01:05.444Z,40.72
2022-11-10T11:03:40.007Z,42.83
2022-11-10T11:06:12.297Z,45.47
2022-11-10T11:08:39.341Z,47.96
2022-11-10T11:11:08.560Z,50.83
2022-11-10T11:13:36.733Z,53.64
2022-11-10T11:16:07.788Z,55.78
2022-11-10T11:18:35.347Z,57.49
2022-11-10T11:21:07.957Z,58.97
2022-11-10T11:23:53.621Z,56.34
2022-11-10T11:26:33.772Z,54.01
2022-11-10T11:29:06.909Z,53.45
2022-11-10T11:31:42.711Z,54.15
2022-11-10T11:34:22.083Z,47.57
2022-11-10T11:36:49.420Z,43.35
2022-11-10T11:39:29.076Z,43.04
2022-11-10T11:41:58.924Z,42.89
2022-11-10T11:44:39.756Z,41.84
2022-11-10T11:47:25.736Z,44.85
2022-11-10T11:49:52.851Z,46.33
2022-11-10T11:52:19.875Z,46.38
2022-11-10T11:54:49.324Z,45.47
2022-11-10T11:57:16.368Z,47.70
2022-11-10T11:59:57.280Z,48.82
2022-11-10T12:02:42.835Z,49.35
2022-11-10T12:05:17.512Z,57.30
2022-11-10T12:08:03.599Z,59.98
2022-11-10T12:10:31.139Z,58.78
2022-11-10T12:13:06.084Z,58.05
2022-11-10T12:15:36.414Z,60.32
2022-11-10T12:18:03.465Z,60.79
2022-11-10T12:20:37.018Z,63.49
2022-11-10T12:23:06.818Z,65.69
2022-11-10T12:25:58.386Z,66.07
2022-11-10T12:28:31.443Z,66.62
2022-11-10T12:31:02.005Z,66.98
2022-11-10T12:33:42.354Z,67.50
2022-11-10T12:36:11.756Z,70.13
2022-11-10T12:38:59.899Z,69.61
2022-11-10T12:41:28.493Z,69.63
2022-11-10T12:44:01.637Z,70.15
2022-11-10T12:46:29.115Z,70.05
2022-11-10T12:49:05.979Z,71.33
2022-11-10T12:51:34.224Z,70.37
2022-11-10T12:54:01.717Z,70.10
2022-11-10T12:56:30.579Z,70.32
2022-11-10T12:59:16.112Z,71.38
2022-11-10T13:01:43.398Z,70.41
2022-11-10T13:04:13.105Z,71.61
2022-11-10T13:06:48.807Z,72.52
2022-11-10T13:09:23.336Z,72.13
2022-11-10T13:12:10.193Z,72.15
2022-11-10T13:14:40.494Z,73.19
2022-11-10T13:17:08.091Z,73.91
2022-11-10T13:19:39.127Z,74.07
2022-11-10T13:22:09.075Z,74.90
2022-11-10T13:24:37.086Z,75.83
2022-11-10T13:27:14.334Z,77.15
2022-11-10T13:29:47.452Z,77.02
2022-11-10T13:32:14.593Z,77.95
2022-11-10T13:34:42.161Z,78.28
2022-11-10T13:37:28.054Z,78.92
2022-11-10T13:40:17.441Z,79.79
2022-11-10T13:42:47.245Z,81.23
2022-11-10T13:45:29.881Z,81.66
2022-11-10T13:48:01.474Z,81.48
2022-11-10T13:50:28.656Z,81.46
2022-11-10T13:53:06.983Z,81.86
2022-11-10T13:55:37.692Z,82.74
2022-11-10T13:58:05.369Z,82.72
2022-11-10T14:00:33.443Z,82.74
2022-11-10T14:03:01.384Z,83.11
2022-11-10T14:05:28.639Z,83.82
2022-11-10T14:08:03.233Z,83.79
2022-11-10T14:10:44.969Z,83.84
2022-11-10T14:13:14.282Z,83.76
2022-11-10T14:15:43.119Z,83.73
2022-11-10T14:18:23.708Z,83.78
2022-11-10T14:20:58.020Z,83.93
2022-11-10T14:23:26.298Z,84.77
2022-11-10T14:25:55.086Z,84.91
2022-11-10T14:28:32.054Z,84.61
2022-11-10T14:30:59.607Z,84.61
2022-11-10T14:33:26.770Z,84.98
2022-11-10T14:35:55.468Z,85.11
2022-11-10T14:38:26.824Z,85.25
2022-11-10T14:40:54.672Z,85.37
2022-11-10T14:43:34.277Z,85.11
2022-11-10T14:46:01.788Z,84.99
2022-11-10T14:48:30.279Z,84.80
2022-11-10T14:51:05.425Z,84.86
2022-11-10T14:53:36.533Z,84.40
2022-11-10T14:56:05.668Z,84.78
2022-11-10T14:58:33.451Z,85.86
2022-11-10T15:01:01.408Z,86.13
2022-11-10T15:03:31.361Z,86.14
2022-11-10T15:06:02.336Z,85.91
2022-11-10T15:08:29.623Z,86.30
2022-11-10T15:10:56.971Z,86.39
2022-11-10T15:13:28.249Z,86.29
2022-11-10T15:16:14.128Z,86.08
2022-11-10T15:18:41.757Z,86.64
2022-11-10T15:21:10.550Z,87.25
2022-11-10T15:23:38.498Z,87.59
2022-11-10T15:26:05.700Z,87.63
2022-11-10T15:28:36.056Z,87.82
2022-11-10T15:31:06.903Z,88.76
2022-11-10T15:33:35.764Z,88.92
2022-11-10T15:36:21.724Z,88.98
2022-11-10T15:39:04.187Z,88.79
2022-11-10T15:41:32.905Z,88.80
2022-11-10T15:44:16.711Z,88.60
2022-11-10T15:46:44.507Z,88.59
2022-11-10T15:49:28.114Z,88.89
2022-11-10T15:51:56.550Z,89.12
2022-11-10T15:54:24.596Z,89.05
2022-11-10T15:56:51.630Z,89.07
2022-11-10T15:59:19.007Z,88.77
2022-11-10T16:01:46.109Z,89.26
2022-11-10T16:04:13.576Z,89.60
2022-11-10T16:06:40.785Z,89.71
2022-11-10T16:09:10.519Z,90.12
2022-11-10T16:11:37.989Z,90.13
2022-11-10T16:14:05.006Z,89.98
2022-11-10T16:16:33.137Z,90.07
2022-11-10T16:19:01.684Z,90.55
2022-11-10T16:21:28.840Z,90.95
2022-11-10T16:23:56.561Z,91.24
2022-11-10T16:26:23.939Z,91.12
2022-11-10T16:28:51.843Z,91.33
2022-11-10T16:31:19.909Z,91.12
2022-11-10T16:33:47.255Z,91.30
2022-11-10T16:36:30.800Z,91.44
2022-11-10T16:38:57.871Z,91.79
2022-11-10T16:41:25.268Z,91.93
2022-11-10T16:43:52.309Z,91.74
2022-11-10T16:46:22.495Z,91.44
2022-11-10T16:48:51.249Z,91.87
2022-11-10T16:51:18.508Z,92.09
2022-11-10T16:53:45.612Z,92.52
2022-11-10T16:56:16.003Z,92.55
2022-11-10T16:58:44.739Z,92.69
2022-11-10T17:01:21.805Z,92.89
2022-11-10T17:03:56.648Z,93.23
2022-11-10T17:06:24.127Z,93.17
2022-11-10T17:08:51.423Z,92.79
2022-11-10T17:11:18.609Z,92.81
2022-11-10T17:13:45.706Z,93.33
2022-11-10T17:16:20.000Z,94.21
2022-11-10T17:18:47.037Z,94.31
2022-11-10T17:21:14.434Z,93.74
2022-11-10T17:23:41.497Z,93.07
2022-11-10T17:26:09.169Z,93.05
2022-11-10T17:28:37.504Z,93.22
2022-11-10T17:31:05.012Z,94.04
2022-11-10T17:33:32.779Z,94.55
2022-11-10T17:36:00.152Z,94.81
2022-11-10T17:38:30.958Z,95.68
2022-11-10T17:40:58.235Z,95.55
2022-11-10T17:43:25.680Z,95.39
2022-11-10T17:45:53.065Z,95.56
2022-11-10T17:48:21.293Z,95.53
2022-11-10T17:50:48.427Z,95.30
2022-11-10T17:53:19.865Z,95.46
2022-11-10T17:55:48.123Z,95.84
2022-11-10T17:58:15.572Z,95.73
2022-11-10T18:00:42.695Z,95.81
2022-11-10T18:03:20.174Z,95.25
2022-11-10T18:05:47.779Z,95.30
2022-11-10T18:08:15.870Z,95.37
2022-11-10T18:10:50.297Z,95.39
2022-11-10T18:13:18.894Z,95.10
2022-11-10T18:15:50.472Z,94.93
2022-11-10T18:18:17.732Z,95.29
2022-11-10T18:20:45.067Z,96.27
2022-11-10T18:23:12.700Z,97.28
2022-11-10T18:25:40.044Z,96.91
2022-11-10T18:28:07.102Z,97.01
2022-11-10T18:30:35.526Z,96.93
2022-11-10T18:33:03.160Z,97.20
2022-11-10T18:35:30.272Z,96.77
2022-11-10T18:37:57.781Z,96.62
2022-11-10T18:40:24.837Z,96.01
2022-11-10T18:42:55.679Z,95.42
2022-11-10T18:45:24.029Z,95.28
2022-11-10T18:47:51.092Z,95.40
2022-11-10T18:50:18.441Z,95.71
2022-11-10T18:52:46.174Z,96.57
2022-11-10T18:55:13.394Z,97.12
2022-11-10T18:57:40.424Z,97.26
2022-11-10T19:00:07.888Z,97.80
2022-11-10T19:02:35.391Z,97.71
2022-11-10T19:05:02.591Z,97.29
2022-11-10T19:07:29.904Z,97.82
2022-11-10T19:09:57.674Z,98.34
2022-11-10T19:12:26.753Z,98.56
2022-11-10T19:14:54.049Z,98.31
2022-11-10T19:17:21.143Z,98.50
2022-11-10T19:19:53.463Z,99.04
2022-11-10T19:22:24.804Z,99.17
2022-11-10T19:25:07.599Z,99.00
2022-11-10T19:27:37.739Z,99.18
2022-11-10T19:30:05.015Z,99.10
2022-11-10T19:32:32.840Z,98.76
2022-11-10T19:35:04.763Z,99.05
2022-11-10T19:37:36.965Z,99.17
2022-11-10T19:40:04.242Z,99.21
2022-11-10T19:42:32.051Z,99.26
2022-11-10T19:44:59.169Z,99.22
2022-11-10T19:47:26.742Z,99.16
2022-11-10T19:49:54.224Z,99.52
2022-11-10T19:52:21.812Z,99.38
2022-11-10T19:54:48.828Z,99.55
2022-11-10T19:57:15.936Z,99.40
2022-11-10T19:59:43.424Z,99.25
2022-11-10T20:02:13.352Z,99.32
2022-11-10T20:05:01.064Z,99.28
2022-11-10T20:07:48.018Z,99.25
2022-11-10T20:10:16.696Z,99.19
2022-11-10T20:12:45.908Z,99.24
2022-11-10T20:15:17.101Z,99.45
2022-11-10T20:17:44.145Z,99.34
2022-11-10T20:20:11.711Z,99.49
2022-11-10T20:22:39.475Z,99.76
2022-11-10T20:25:06.723Z,99.57
2022-11-10T20:27:35.305Z,99.94
2022-11-10T20:30:03.073Z,99.66
2022-11-10T20:32:30.284Z,99.66
2022-11-10T20:34:58.046Z,99.68
2022-11-10T20:37:25.862Z,99.95
2022-11-10T20:39:54.243Z,99.61
2022-11-10T20:42:22.928Z,99.49
2022-11-10T20:44:49.943Z,99.44
2022-11-10T20:47:17.579Z,99.12
2022-11-10T20:49:45.248Z,99.15
2022-11-10T20:52:14.304Z,99.03
2022-11-10T20:54:43.703Z,99.24
2022-11-10T20:57:10.785Z,99.21
2022-11-10T20:59:37.859Z,99.00
2022-11-10T21:02:05.581Z,99.49
2022-11-10T21:04:32.724Z,99.70
2022-11-10T21:06:59.926Z,99.74
2022-11-10T21:09:27.800Z,99.72
2022-11-10T21:12:13.724Z,100.00
2022-11-10T21:14:40.770Z,99.86
2022-11-10T21:17:08.010Z,99.62
2022-11-10T21:19:35.150Z,99.68
2022-11-10T21:22:02.224Z,99.31
2022-11-10T21:24:29.615Z,98.94
2022-11-10T21:26:58.260Z,98.87
2022-11-10T21:29:25.397Z,99.18
2022-11-10T21:31:54.199Z,99.43
2022-11-10T21:34:21.363Z,99.53
2022-11-10T21:36:48.370Z,99.38
2022-11-10T21:39:15.500Z,99.64
2022-11-10T21:41:43.566Z,99.52
2022-11-10T21:44:10.630Z,99.72
2022-11-10T21:46:37.744Z,99.68
2022-11-10T21:49:07.820Z,99.86
2022-11-10T21:51:36.661Z,100.00
2022-11-10T21:54:03.820Z,100.00
2022-11-10T21:56:31.235Z,100.00
2022-11-10T21:58:58.540Z,100.00
2022-11-10T22:01:25.634Z,100.00
2022-11-10T22:03:52.700Z,100.00
2022-11-10T22:06:21.187Z,100.00
2022-11-10T22:08:49.208Z,100.00
2022-11-10T22:11:38.622Z,100.00
2022-11-10T22:14:30.496Z,99.89
2022-11-10T22:17:18.007Z,99.88
2022-11-10T22:19:45.115Z,99.63
2022-11-10T22:22:14.270Z,99.61
2022-11-10T22:24:41.482Z,99.31
2022-11-10T22:27:08.540Z,99.17
2022-11-10T22:29:35.635Z,99.25
2022-11-10T22:32:02.812Z,99.09
2022-11-10T22:34:30.150Z,99.13
2022-11-10T22:36:59.653Z,98.83
2022-11-10T22:39:46.093Z,98.67
2022-11-10T22:42:32.721Z,98.76
2022-11-10T22:45:00.188Z,98.67
2022-11-10T22:47:47.255Z,98.56
2022-11-10T22:50:14.793Z,98.56
2022-11-10T22:52:42.157Z,98.50
2022-11-10T22:55:09.280Z,98.44
2022-11-10T22:57:36.635Z,98.22
2022-11-10T23:00:04.004Z,98.54
2022-11-10T23:02:31.305Z,98.16
2022-11-10T23:04:58.804Z,98.06
2022-11-10T23:07:25.876Z,97.83
2022-11-10T23:09:52.895Z,97.70
2022-11-10T23:12:20.000Z,97.62
2022-11-10T23:14:47.035Z,97.75
2022-11-10T23:17:15.831Z,97.69
2022-11-10T23:19:43.044Z,97.76
2022-11-10T23:22:10.412Z,97.55
2022-11-10T23:24:38.497Z,97.43
2022-11-10T23:27:05.579Z,97.23
2022-11-10T23:29:32.629Z,97.27
2022-11-10T23:32:00.067Z,97.29
2022-11-10T23:34:27.131Z,97.51
2022-11-10T23:36:54.216Z,97.50
2022-11-10T23:39:21.409Z,97.53
2022-11-10T23:41:49.077Z,97.45
2022-11-10T23:44:17.462Z,97.24
2022-11-10T23:46:44.488Z,97.34
2022-11-10T23:49:11.535Z,96.90
2022-11-10T23:51:38.585Z,96.83
2022-11-10T23:54:05.604Z,96.86
2022-11-10T23:56:33.680Z,96.50
2022-11-10T23:59:00.779Z,96.08
